sensor_id;sensor_type;location;lat;lon;timestamp;temperature;humidity
67529;DHT22;54366;51.980;5.856;2022-07-29T00:02:07;19.10;54.70
67529;DHT22;54366;51.980;5.856;2022-07-29T00:04:36;19.10;54.70
67529;DHT22;54366;51.980;5.856;2022-07-29T00:07:04;19.00;54.80
67529;DHT22;54366;51.980;5.856;2022-07-29T00:09:31;19.00;55.10
67529;DHT22;54366;51.980;5.856;2022-07-29T00:11:59;19.00;55.10
67529;DHT22;54366;51.980;5.856;2022-07-29T00:14:26;19.00;55.10
67529;DHT22;54366;51.980;5.856;2022-07-29T00:16:53;19.00;55.60
67529;DHT22;54366;51.980;5.856;2022-07-29T00:19:19;18.90;55.20
67529;DHT22;54366;51.980;5.856;2022-07-29T00:21:45;18.90;55.40
67529;DHT22;54366;51.980;5.856;2022-07-29T00:24:11;18.90;55.90
67529;DHT22;54366;51.980;5.856;2022-07-29T00:26:38;18.90;55.80
67529;DHT22;54366;51.980;5.856;2022-07-29T00:29:04;18.90;55.80
67529;DHT22;54366;51.980;5.856;2022-07-29T00:31:31;18.80;55.70
67529;DHT22;54366;51.980;5.856;2022-07-29T00:33:57;18.80;56.00
67529;DHT22;54366;51.980;5.856;2022-07-29T00:36:23;18.80;56.20
67529;DHT22;54366;51.980;5.856;2022-07-29T00:38:50;18.70;56.70
67529;DHT22;54366;51.980;5.856;2022-07-29T00:41:17;18.80;56.40
67529;DHT22;54366;51.980;5.856;2022-07-29T00:43:44;18.80;56.40
67529;DHT22;54366;51.980;5.856;2022-07-29T00:46:11;18.70;56.20
67529;DHT22;54366;51.980;5.856;2022-07-29T00:48:37;18.70;56.40
67529;DHT22;54366;51.980;5.856;2022-07-29T00:51:05;18.80;56.60
67529;DHT22;54366;51.980;5.856;2022-07-29T00:53:32;18.80;56.30
67529;DHT22;54366;51.980;5.856;2022-07-29T00:55:58;18.70;56.30
67529;DHT22;54366;51.980;5.856;2022-07-29T00:58:26;18.70;56.80
67529;DHT22;54366;51.980;5.856;2022-07-29T01:00:52;18.70;56.80
67529;DHT22;54366;51.980;5.856;2022-07-29T01:03:19;18.60;56.60
67529;DHT22;54366;51.980;5.856;2022-07-29T01:05:45;18.60;56.70
67529;DHT22;54366;51.980;5.856;2022-07-29T01:08:13;18.60;56.70
67529;DHT22;54366;51.980;5.856;2022-07-29T01:10:40;18.60;56.80
67529;DHT22;54366;51.980;5.856;2022-07-29T01:13:08;18.60;57.30
67529;DHT22;54366;51.980;5.856;2022-07-29T01:15:47;18.60;57.30
67529;DHT22;54366;51.980;5.856;2022-07-29T01:18:24;18.60;57.50
67529;DHT22;54366;51.980;5.856;2022-07-29T01:32:06;18.60;57.50
67529;DHT22;54366;51.980;5.856;2022-07-29T01:34:48;18.50;57.40
67529;DHT22;54366;51.980;5.856;2022-07-29T01:37:32;18.50;57.30
67529;DHT22;54366;51.980;5.856;2022-07-29T01:40:02;18.50;57.50
67529;DHT22;54366;51.980;5.856;2022-07-29T01:42:36;18.50;57.50
67529;DHT22;54366;51.980;5.856;2022-07-29T01:45:17;18.50;57.60
67529;DHT22;54366;51.980;5.856;2022-07-29T01:48:02;18.50;57.70
67529;DHT22;54366;51.980;5.856;2022-07-29T01:50:38;18.40;57.70
67529;DHT22;54366;51.980;5.856;2022-07-29T01:53:08;18.40;57.70
67529;DHT22;54366;51.980;5.856;2022-07-29T01:55:38;18.40;57.50
67529;DHT22;54366;51.980;5.856;2022-07-29T01:58:05;18.40;57.70
67529;DHT22;54366;51.980;5.856;2022-07-29T02:00:34;18.40;57.80
67529;DHT22;54366;51.980;5.856;2022-07-29T02:03:07;18.40;58.20
67529;DHT22;54366;51.980;5.856;2022-07-29T02:05:35;18.40;57.70
67529;DHT22;54366;51.980;5.856;2022-07-29T02:08:04;18.50;57.80
67529;DHT22;54366;51.980;5.856;2022-07-29T02:10:33;18.40;58.10
67529;DHT22;54366;51.980;5.856;2022-07-29T02:13:02;18.40;58.70
67529;DHT22;54366;51.980;5.856;2022-07-29T02:15:30;18.40;59.50
67529;DHT22;54366;51.980;5.856;2022-07-29T02:18:04;18.40;59.10
67529;DHT22;54366;51.980;5.856;2022-07-29T02:20:33;18.40;59.20
67529;DHT22;54366;51.980;5.856;2022-07-29T02:23:00;18.40;59.60
67529;DHT22;54366;51.980;5.856;2022-07-29T02:25:28;18.30;59.50
67529;DHT22;54366;51.980;5.856;2022-07-29T02:27:55;18.30;59.60
67529;DHT22;54366;51.980;5.856;2022-07-29T02:30:23;18.30;59.70
67529;DHT22;54366;51.980;5.856;2022-07-29T02:32:50;18.40;59.40
67529;DHT22;54366;51.980;5.856;2022-07-29T02:35:18;18.30;60.90
67529;DHT22;54366;51.980;5.856;2022-07-29T02:37:46;18.20;61.60
67529;DHT22;54366;51.980;5.856;2022-07-29T02:40:34;18.20;62.40
67529;DHT22;54366;51.980;5.856;2022-07-29T02:43:03;18.20;63.50
67529;DHT22;54366;51.980;5.856;2022-07-29T02:45:32;18.10;63.20
67529;DHT22;54366;51.980;5.856;2022-07-29T02:48:00;18.10;63.60
67529;DHT22;54366;51.980;5.856;2022-07-29T02:50:37;18.10;64.00
67529;DHT22;54366;51.980;5.856;2022-07-29T02:53:17;18.10;64.60
67529;DHT22;54366;51.980;5.856;2022-07-29T02:56:06;18.10;64.10
67529;DHT22;54366;51.980;5.856;2022-07-29T02:58:38;18.10;63.20
67529;DHT22;54366;51.980;5.856;2022-07-29T03:01:15;18.00;63.80
67529;DHT22;54366;51.980;5.856;2022-07-29T03:03:44;18.00;64.70
67529;DHT22;54366;51.980;5.856;2022-07-29T03:06:13;17.90;65.50
67529;DHT22;54366;51.980;5.856;2022-07-29T03:08:40;17.90;67.30
67529;DHT22;54366;51.980;5.856;2022-07-29T03:11:08;17.80;67.40
67529;DHT22;54366;51.980;5.856;2022-07-29T03:13:35;17.80;68.00
67529;DHT22;54366;51.980;5.856;2022-07-29T03:16:01;17.80;67.90
67529;DHT22;54366;51.980;5.856;2022-07-29T03:18:28;17.70;66.50
67529;DHT22;54366;51.980;5.856;2022-07-29T03:20:55;17.70;66.30
67529;DHT22;54366;51.980;5.856;2022-07-29T03:23:22;17.70;66.20
67529;DHT22;54366;51.980;5.856;2022-07-29T03:25:50;17.70;66.00
67529;DHT22;54366;51.980;5.856;2022-07-29T03:28:16;17.60;66.50
67529;DHT22;54366;51.980;5.856;2022-07-29T03:30:42;17.60;66.90
67529;DHT22;54366;51.980;5.856;2022-07-29T03:33:09;17.60;66.80
67529;DHT22;54366;51.980;5.856;2022-07-29T03:35:35;17.50;66.70
67529;DHT22;54366;51.980;5.856;2022-07-29T03:38:01;17.40;66.20
67529;DHT22;54366;51.980;5.856;2022-07-29T03:40:37;17.40;66.30
67529;DHT22;54366;51.980;5.856;2022-07-29T03:43:05;17.30;66.40
67529;DHT22;54366;51.980;5.856;2022-07-29T03:45:33;17.20;66.30
67529;DHT22;54366;51.980;5.856;2022-07-29T03:48:06;17.10;67.80
67529;DHT22;54366;51.980;5.856;2022-07-29T03:50:33;17.10;68.90
67529;DHT22;54366;51.980;5.856;2022-07-29T03:53:01;17.00;67.80
67529;DHT22;54366;51.980;5.856;2022-07-29T03:55:29;17.00;67.90
67529;DHT22;54366;51.980;5.856;2022-07-29T03:57:58;16.90;67.20
67529;DHT22;54366;51.980;5.856;2022-07-29T04:00:27;16.90;68.40
67529;DHT22;54366;51.980;5.856;2022-07-29T04:02:53;16.90;68.50
67529;DHT22;54366;51.980;5.856;2022-07-29T04:05:19;16.80;68.10
67529;DHT22;54366;51.980;5.856;2022-07-29T04:07:47;16.80;68.30
67529;DHT22;54366;51.980;5.856;2022-07-29T04:10:14;16.70;69.30
67529;DHT22;54366;51.980;5.856;2022-07-29T04:12:41;16.60;68.40
67529;DHT22;54366;51.980;5.856;2022-07-29T04:15:08;16.60;68.60
67529;DHT22;54366;51.980;5.856;2022-07-29T04:17:34;16.60;68.90
67529;DHT22;54366;51.980;5.856;2022-07-29T04:20:00;16.60;69.40
67529;DHT22;54366;51.980;5.856;2022-07-29T04:22:27;16.60;69.00
67529;DHT22;54366;51.980;5.856;2022-07-29T04:24:53;16.50;69.00
67529;DHT22;54366;51.980;5.856;2022-07-29T04:27:19;16.50;69.10
67529;DHT22;54366;51.980;5.856;2022-07-29T04:29:45;16.60;69.30
67529;DHT22;54366;51.980;5.856;2022-07-29T04:32:11;16.60;69.40
67529;DHT22;54366;51.980;5.856;2022-07-29T04:34:38;16.50;70.30
67529;DHT22;54366;51.980;5.856;2022-07-29T04:37:04;16.50;70.10
67529;DHT22;54366;51.980;5.856;2022-07-29T04:39:30;16.60;69.70
67529;DHT22;54366;51.980;5.856;2022-07-29T04:41:56;16.50;69.70
67529;DHT22;54366;51.980;5.856;2022-07-29T04:44:23;16.60;69.50
67529;DHT22;54366;51.980;5.856;2022-07-29T04:46:49;16.50;69.30
67529;DHT22;54366;51.980;5.856;2022-07-29T04:49:15;16.50;69.10
67529;DHT22;54366;51.980;5.856;2022-07-29T04:51:41;16.50;69.60
67529;DHT22;54366;51.980;5.856;2022-07-29T04:54:07;16.50;69.50
67529;DHT22;54366;51.980;5.856;2022-07-29T04:56:34;16.50;69.00
67529;DHT22;54366;51.980;5.856;2022-07-29T04:59:00;16.50;69.10
67529;DHT22;54366;51.980;5.856;2022-07-29T05:01:26;16.50;69.00
67529;DHT22;54366;51.980;5.856;2022-07-29T05:03:52;16.50;69.50
67529;DHT22;54366;51.980;5.856;2022-07-29T05:06:18;16.50;69.20
67529;DHT22;54366;51.980;5.856;2022-07-29T05:08:44;16.50;69.10
67529;DHT22;54366;51.980;5.856;2022-07-29T05:11:11;16.50;69.30
67529;DHT22;54366;51.980;5.856;2022-07-29T05:13:37;16.40;69.30
67529;DHT22;54366;51.980;5.856;2022-07-29T05:16:04;16.50;70.30
67529;DHT22;54366;51.980;5.856;2022-07-29T05:18:30;16.40;69.60
67529;DHT22;54366;51.980;5.856;2022-07-29T05:20:56;16.40;69.30
67529;DHT22;54366;51.980;5.856;2022-07-29T05:23:22;16.40;69.40
67529;DHT22;54366;51.980;5.856;2022-07-29T05:25:49;16.40;69.40
67529;DHT22;54366;51.980;5.856;2022-07-29T05:28:16;16.40;69.60
67529;DHT22;54366;51.980;5.856;2022-07-29T05:30:42;16.50;69.50
67529;DHT22;54366;51.980;5.856;2022-07-29T05:33:10;16.40;70.00
67529;DHT22;54366;51.980;5.856;2022-07-29T05:35:36;16.50;70.60
67529;DHT22;54366;51.980;5.856;2022-07-29T05:38:03;16.50;70.70
67529;DHT22;54366;51.980;5.856;2022-07-29T05:40:29;16.50;70.10
67529;DHT22;54366;51.980;5.856;2022-07-29T05:42:56;16.60;69.90
67529;DHT22;54366;51.980;5.856;2022-07-29T05:45:22;16.60;69.30
67529;DHT22;54366;51.980;5.856;2022-07-29T05:47:50;16.60;69.10
67529;DHT22;54366;51.980;5.856;2022-07-29T05:50:16;16.70;69.50
67529;DHT22;54366;51.980;5.856;2022-07-29T05:52:42;16.70;69.20
67529;DHT22;54366;51.980;5.856;2022-07-29T05:55:09;16.70;70.00
67529;DHT22;54366;51.980;5.856;2022-07-29T05:57:35;16.80;69.30
67529;DHT22;54366;51.980;5.856;2022-07-29T06:00:01;16.80;68.70
67529;DHT22;54366;51.980;5.856;2022-07-29T06:02:27;16.80;68.70
67529;DHT22;54366;51.980;5.856;2022-07-29T06:04:54;16.80;68.50
67529;DHT22;54366;51.980;5.856;2022-07-29T06:07:20;16.80;68.40
67529;DHT22;54366;51.980;5.856;2022-07-29T06:09:47;16.80;68.90
67529;DHT22;54366;51.980;5.856;2022-07-29T06:12:13;16.90;68.80
67529;DHT22;54366;51.980;5.856;2022-07-29T06:14:40;16.90;68.40
67529;DHT22;54366;51.980;5.856;2022-07-29T06:17:06;16.90;68.70
67529;DHT22;54366;51.980;5.856;2022-07-29T06:19:34;17.00;68.40
67529;DHT22;54366;51.980;5.856;2022-07-29T06:22:02;17.00;68.10
67529;DHT22;54366;51.980;5.856;2022-07-29T06:24:28;17.10;68.20
67529;DHT22;54366;51.980;5.856;2022-07-29T06:26:54;17.20;68.30
67529;DHT22;54366;51.980;5.856;2022-07-29T06:29:21;17.20;67.80
67529;DHT22;54366;51.980;5.856;2022-07-29T06:31:47;17.20;67.90
67529;DHT22;54366;51.980;5.856;2022-07-29T06:34:13;17.30;68.00
67529;DHT22;54366;51.980;5.856;2022-07-29T06:36:39;17.30;67.40
67529;DHT22;54366;51.980;5.856;2022-07-29T06:39:07;17.40;67.20
67529;DHT22;54366;51.980;5.856;2022-07-29T06:41:34;17.50;67.30
67529;DHT22;54366;51.980;5.856;2022-07-29T06:44:08;17.50;67.60
67529;DHT22;54366;51.980;5.856;2022-07-29T06:46:35;17.60;66.50
67529;DHT22;54366;51.980;5.856;2022-07-29T06:49:01;17.60;66.20
67529;DHT22;54366;51.980;5.856;2022-07-29T06:51:28;17.60;66.20
67529;DHT22;54366;51.980;5.856;2022-07-29T06:53:54;17.70;65.90
67529;DHT22;54366;51.980;5.856;2022-07-29T06:56:21;17.70;65.50
67529;DHT22;54366;51.980;5.856;2022-07-29T06:58:47;17.80;66.00
67529;DHT22;54366;51.980;5.856;2022-07-29T07:01:13;17.90;65.70
67529;DHT22;54366;51.980;5.856;2022-07-29T07:03:39;18.00;65.70
67529;DHT22;54366;51.980;5.856;2022-07-29T07:06:05;18.10;65.80
67529;DHT22;54366;51.980;5.856;2022-07-29T07:08:31;18.10;65.20
67529;DHT22;54366;51.980;5.856;2022-07-29T07:10:58;18.20;64.90
67529;DHT22;54366;51.980;5.856;2022-07-29T07:13:24;18.20;64.70
67529;DHT22;54366;51.980;5.856;2022-07-29T07:15:51;18.20;64.90
67529;DHT22;54366;51.980;5.856;2022-07-29T07:18:18;18.30;65.00
67529;DHT22;54366;51.980;5.856;2022-07-29T07:20:45;18.40;65.20
67529;DHT22;54366;51.980;5.856;2022-07-29T07:23:11;18.40;65.00
67529;DHT22;54366;51.980;5.856;2022-07-29T07:25:37;18.50;65.20
67529;DHT22;54366;51.980;5.856;2022-07-29T07:28:03;18.50;65.10
67529;DHT22;54366;51.980;5.856;2022-07-29T07:30:30;18.60;64.90
67529;DHT22;54366;51.980;5.856;2022-07-29T07:32:56;18.60;65.00
67529;DHT22;54366;51.980;5.856;2022-07-29T07:35:23;18.60;64.90
67529;DHT22;54366;51.980;5.856;2022-07-29T07:37:49;18.70;64.80
67529;DHT22;54366;51.980;5.856;2022-07-29T07:40:15;18.70;64.30
67529;DHT22;54366;51.980;5.856;2022-07-29T07:42:41;18.60;64.40
67529;DHT22;54366;51.980;5.856;2022-07-29T07:45:08;18.60;64.40
67529;DHT22;54366;51.980;5.856;2022-07-29T07:47:38;18.60;64.50
67529;DHT22;54366;51.980;5.856;2022-07-29T07:50:06;18.60;64.40
67529;DHT22;54366;51.980;5.856;2022-07-29T07:52:33;18.60;64.80
67529;DHT22;54366;51.980;5.856;2022-07-29T07:55:00;18.70;65.00
67529;DHT22;54366;51.980;5.856;2022-07-29T07:57:26;18.80;65.10
67529;DHT22;54366;51.980;5.856;2022-07-29T07:59:53;18.90;65.20
67529;DHT22;54366;51.980;5.856;2022-07-29T08:02:19;18.90;65.10
67529;DHT22;54366;51.980;5.856;2022-07-29T08:04:45;19.00;64.70
67529;DHT22;54366;51.980;5.856;2022-07-29T08:07:11;19.00;64.50
67529;DHT22;54366;51.980;5.856;2022-07-29T08:09:37;19.10;64.30
67529;DHT22;54366;51.980;5.856;2022-07-29T08:12:04;19.10;63.90
67529;DHT22;54366;51.980;5.856;2022-07-29T08:14:32;19.10;64.00
67529;DHT22;54366;51.980;5.856;2022-07-29T08:16:59;19.10;64.00
67529;DHT22;54366;51.980;5.856;2022-07-29T08:19:25;19.20;64.20
67529;DHT22;54366;51.980;5.856;2022-07-29T08:21:51;19.20;63.80
67529;DHT22;54366;51.980;5.856;2022-07-29T08:24:20;19.20;63.20
67529;DHT22;54366;51.980;5.856;2022-07-29T08:27:04;19.20;63.10
67529;DHT22;54366;51.980;5.856;2022-07-29T08:29:31;19.20;63.40
67529;DHT22;54366;51.980;5.856;2022-07-29T08:31:57;19.20;63.60
67529;DHT22;54366;51.980;5.856;2022-07-29T08:34:23;19.20;64.00
67529;DHT22;54366;51.980;5.856;2022-07-29T08:36:49;19.20;64.30
67529;DHT22;54366;51.980;5.856;2022-07-29T08:39:15;19.20;64.40
67529;DHT22;54366;51.980;5.856;2022-07-29T08:41:42;19.20;64.50
67529;DHT22;54366;51.980;5.856;2022-07-29T08:44:09;19.20;64.70
67529;DHT22;54366;51.980;5.856;2022-07-29T08:46:38;19.20;64.90
67529;DHT22;54366;51.980;5.856;2022-07-29T08:49:05;19.30;65.10
67529;DHT22;54366;51.980;5.856;2022-07-29T08:51:32;19.40;65.30
67529;DHT22;54366;51.980;5.856;2022-07-29T08:53:59;19.50;64.60
67529;DHT22;54366;51.980;5.856;2022-07-29T08:56:26;19.50;64.20
67529;DHT22;54366;51.980;5.856;2022-07-29T08:58:54;19.50;64.40
67529;DHT22;54366;51.980;5.856;2022-07-29T09:01:25;19.50;64.30
67529;DHT22;54366;51.980;5.856;2022-07-29T09:03:55;19.60;64.30
67529;DHT22;54366;51.980;5.856;2022-07-29T09:06:22;19.60;64.10
67529;DHT22;54366;51.980;5.856;2022-07-29T09:08:51;19.70;64.10
67529;DHT22;54366;51.980;5.856;2022-07-29T09:11:18;19.70;64.10
67529;DHT22;54366;51.980;5.856;2022-07-29T09:13:44;19.80;64.20
67529;DHT22;54366;51.980;5.856;2022-07-29T09:16:10;19.80;64.10
67529;DHT22;54366;51.980;5.856;2022-07-29T09:18:42;19.90;64.00
67529;DHT22;54366;51.980;5.856;2022-07-29T09:21:13;19.90;63.70
67529;DHT22;54366;51.980;5.856;2022-07-29T09:24:12;20.00;63.80
67529;DHT22;54366;51.980;5.856;2022-07-29T09:26:43;20.00;63.40
67529;DHT22;54366;51.980;5.856;2022-07-29T09:29:14;20.00;63.50
67529;DHT22;54366;51.980;5.856;2022-07-29T09:31:43;20.00;63.60
67529;DHT22;54366;51.980;5.856;2022-07-29T09:34:10;20.00;63.50
67529;DHT22;54366;51.980;5.856;2022-07-29T09:36:42;20.00;63.40
67529;DHT22;54366;51.980;5.856;2022-07-29T09:39:09;20.00;62.90
67529;DHT22;54366;51.980;5.856;2022-07-29T09:41:53;20.00;62.90
67529;DHT22;54366;51.980;5.856;2022-07-29T09:44:20;19.90;62.80
67529;DHT22;54366;51.980;5.856;2022-07-29T09:46:58;19.90;62.80
67529;DHT22;54366;51.980;5.856;2022-07-29T09:49:25;20.00;63.40
67529;DHT22;54366;51.980;5.856;2022-07-29T09:52:06;20.00;63.60
67529;DHT22;54366;51.980;5.856;2022-07-29T09:54:33;20.10;63.40
67529;DHT22;54366;51.980;5.856;2022-07-29T09:57:26;20.20;63.00
67529;DHT22;54366;51.980;5.856;2022-07-29T09:59:58;20.30;63.40
67529;DHT22;54366;51.980;5.856;2022-07-29T10:02:29;20.40;63.30
67529;DHT22;54366;51.980;5.856;2022-07-29T10:04:57;20.60;63.40
67529;DHT22;54366;51.980;5.856;2022-07-29T10:07:23;20.80;63.00
67529;DHT22;54366;51.980;5.856;2022-07-29T10:09:55;21.10;62.30
67529;DHT22;54366;51.980;5.856;2022-07-29T10:12:22;21.20;61.20
67529;DHT22;54366;51.980;5.856;2022-07-29T10:14:49;21.40;61.40
67529;DHT22;54366;51.980;5.856;2022-07-29T10:17:16;21.70;61.10
67529;DHT22;54366;51.980;5.856;2022-07-29T10:19:42;22.00;59.80
67529;DHT22;54366;51.980;5.856;2022-07-29T10:22:10;22.30;58.70
67529;DHT22;54366;51.980;5.856;2022-07-29T10:24:38;22.60;58.20
67529;DHT22;54366;51.980;5.856;2022-07-29T10:27:07;22.80;57.40
67529;DHT22;54366;51.980;5.856;2022-07-29T10:29:35;23.00;56.10
67529;DHT22;54366;51.980;5.856;2022-07-29T10:32:27;23.10;55.90
67529;DHT22;54366;51.980;5.856;2022-07-29T10:38:17;23.00;54.90
67529;DHT22;54366;51.980;5.856;2022-07-29T10:44:01;23.30;53.90
67529;DHT22;54366;51.980;5.856;2022-07-29T10:46:28;23.40;53.80
67529;DHT22;54366;51.980;5.856;2022-07-29T10:54:17;23.80;54.30
67529;DHT22;54366;51.980;5.856;2022-07-29T10:56:44;23.90;53.90
67529;DHT22;54366;51.980;5.856;2022-07-29T11:01:47;24.00;53.80
67529;DHT22;54366;51.980;5.856;2022-07-29T11:04:13;24.00;53.80
67529;DHT22;54366;51.980;5.856;2022-07-29T11:09:26;24.30;52.90
67529;DHT22;54366;51.980;5.856;2022-07-29T11:11:53;24.30;53.40
67529;DHT22;54366;51.980;5.856;2022-07-29T11:17:18;24.50;53.00
67529;DHT22;54366;51.980;5.856;2022-07-29T11:19:44;24.60;53.40
67529;DHT22;54366;51.980;5.856;2022-07-29T11:22:11;24.90;52.20
67529;DHT22;54366;51.980;5.856;2022-07-29T11:24:38;25.10;49.40
67529;DHT22;54366;51.980;5.856;2022-07-29T11:27:15;25.30;46.50
67529;DHT22;54366;51.980;5.856;2022-07-29T11:29:57;25.50;46.00
67529;DHT22;54366;51.980;5.856;2022-07-29T11:32:37;25.60;45.30
67529;DHT22;54366;51.980;5.856;2022-07-29T11:35:23;25.80;45.50
67529;DHT22;54366;51.980;5.856;2022-07-29T11:41:25;26.40;46.30
67529;DHT22;54366;51.980;5.856;2022-07-29T11:43:58;26.50;44.00
67529;DHT22;54366;51.980;5.856;2022-07-29T11:46:50;26.50;44.80
67529;DHT22;54366;51.980;5.856;2022-07-29T11:49:24;26.70;44.40
67529;DHT22;54366;51.980;5.856;2022-07-29T11:51:56;26.80;45.40
67529;DHT22;54366;51.980;5.856;2022-07-29T11:54:32;27.00;43.30
67529;DHT22;54366;51.980;5.856;2022-07-29T11:56:59;27.00;44.40
67529;DHT22;54366;51.980;5.856;2022-07-29T11:59:26;27.20;44.40
67529;DHT22;54366;51.980;5.856;2022-07-29T12:01:57;27.40;43.70
67529;DHT22;54366;51.980;5.856;2022-07-29T12:04:24;27.50;43.00
67529;DHT22;54366;51.980;5.856;2022-07-29T12:06:51;27.60;43.80
67529;DHT22;54366;51.980;5.856;2022-07-29T12:09:18;27.90;43.70
67529;DHT22;54366;51.980;5.856;2022-07-29T12:11:46;28.10;43.30
67529;DHT22;54366;51.980;5.856;2022-07-29T12:14:29;28.20;42.50
67529;DHT22;54366;51.980;5.856;2022-07-29T12:16:56;28.30;42.40
67529;DHT22;54366;51.980;5.856;2022-07-29T12:19:23;28.50;43.10
67529;DHT22;54366;51.980;5.856;2022-07-29T12:21:52;28.70;42.60
67529;DHT22;54366;51.980;5.856;2022-07-29T12:24:19;28.80;40.90
67529;DHT22;54366;51.980;5.856;2022-07-29T12:26:53;28.90;40.10
67529;DHT22;54366;51.980;5.856;2022-07-29T12:29:20;29.00;39.50
67529;DHT22;54366;51.980;5.856;2022-07-29T12:31:46;29.00;40.10
67529;DHT22;54366;51.980;5.856;2022-07-29T12:34:23;29.10;38.80
67529;DHT22;54366;51.980;5.856;2022-07-29T12:36:50;29.00;39.20
67529;DHT22;54366;51.980;5.856;2022-07-29T12:39:17;29.10;40.90
67529;DHT22;54366;51.980;5.856;2022-07-29T12:41:43;29.00;40.60
67529;DHT22;54366;51.980;5.856;2022-07-29T12:44:10;28.90;40.50
67529;DHT22;54366;51.980;5.856;2022-07-29T12:46:36;28.80;40.70
67529;DHT22;54366;51.980;5.856;2022-07-29T12:49:03;28.80;40.60
67529;DHT22;54366;51.980;5.856;2022-07-29T12:51:38;28.70;40.60
67529;DHT22;54366;51.980;5.856;2022-07-29T12:54:08;28.50;41.20
67529;DHT22;54366;51.980;5.856;2022-07-29T12:56:40;28.40;41.20
67529;DHT22;54366;51.980;5.856;2022-07-29T12:59:22;28.30;40.90
67529;DHT22;54366;51.980;5.856;2022-07-29T13:01:51;28.20;42.10
67529;DHT22;54366;51.980;5.856;2022-07-29T13:04:25;28.20;41.30
67529;DHT22;54366;51.980;5.856;2022-07-29T13:09:35;28.30;41.80
67529;DHT22;54366;51.980;5.856;2022-07-29T13:12:06;28.50;42.00
67529;DHT22;54366;51.980;5.856;2022-07-29T13:14:34;28.70;41.20
67529;DHT22;54366;51.980;5.856;2022-07-29T13:17:15;28.80;40.60
67529;DHT22;54366;51.980;5.856;2022-07-29T13:19:43;29.00;40.50
67529;DHT22;54366;51.980;5.856;2022-07-29T13:22:20;29.10;39.90
67529;DHT22;54366;51.980;5.856;2022-07-29T13:24:57;29.20;39.90
67529;DHT22;54366;51.980;5.856;2022-07-29T13:27:28;29.40;40.70
67529;DHT22;54366;51.980;5.856;2022-07-29T13:29:56;29.50;39.60
67529;DHT22;54366;51.980;5.856;2022-07-29T13:32:28;29.60;39.40
67529;DHT22;54366;51.980;5.856;2022-07-29T13:35:00;29.60;39.20
67529;DHT22;54366;51.980;5.856;2022-07-29T13:37:26;29.60;38.20
67529;DHT22;54366;51.980;5.856;2022-07-29T13:39:58;29.50;38.00
67529;DHT22;54366;51.980;5.856;2022-07-29T13:42:25;29.40;38.10
67529;DHT22;54366;51.980;5.856;2022-07-29T13:44:52;29.40;38.70
67529;DHT22;54366;51.980;5.856;2022-07-29T13:47:21;29.40;38.70
67529;DHT22;54366;51.980;5.856;2022-07-29T13:49:50;29.40;37.90
67529;DHT22;54366;51.980;5.856;2022-07-29T13:52:17;29.40;37.90
67529;DHT22;54366;51.980;5.856;2022-07-29T13:54:43;29.40;38.80
67529;DHT22;54366;51.980;5.856;2022-07-29T13:57:11;29.40;38.50
67529;DHT22;54366;51.980;5.856;2022-07-29T13:59:38;29.50;38.80
67529;DHT22;54366;51.980;5.856;2022-07-29T14:02:04;29.50;38.40
67529;DHT22;54366;51.980;5.856;2022-07-29T14:04:31;29.50;37.90
67529;DHT22;54366;51.980;5.856;2022-07-29T14:06:57;29.40;38.50
67529;DHT22;54366;51.980;5.856;2022-07-29T14:09:23;29.30;38.00
67529;DHT22;54366;51.980;5.856;2022-07-29T14:11:50;29.10;37.60
67529;DHT22;54366;51.980;5.856;2022-07-29T14:14:17;28.80;37.80
67529;DHT22;54366;51.980;5.856;2022-07-29T14:16:43;28.50;38.30
67529;DHT22;54366;51.980;5.856;2022-07-29T14:19:09;28.40;38.80
67529;DHT22;54366;51.980;5.856;2022-07-29T14:21:37;28.30;39.10
67529;DHT22;54366;51.980;5.856;2022-07-29T14:24:04;28.30;39.50
67529;DHT22;54366;51.980;5.856;2022-07-29T14:26:31;28.40;39.90
67529;DHT22;54366;51.980;5.856;2022-07-29T14:28:57;28.40;40.10
67529;DHT22;54366;51.980;5.856;2022-07-29T14:31:23;28.40;39.60
67529;DHT22;54366;51.980;5.856;2022-07-29T14:33:49;28.30;39.30
67529;DHT22;54366;51.980;5.856;2022-07-29T14:36:15;28.10;39.00
67529;DHT22;54366;51.980;5.856;2022-07-29T14:38:42;28.00;38.80
67529;DHT22;54366;51.980;5.856;2022-07-29T14:41:08;27.80;39.00
67529;DHT22;54366;51.980;5.856;2022-07-29T14:43:35;27.80;39.50
67529;DHT22;54366;51.980;5.856;2022-07-29T14:46:01;27.70;39.80
67529;DHT22;54366;51.980;5.856;2022-07-29T14:48:27;27.60;40.00
67529;DHT22;54366;51.980;5.856;2022-07-29T14:50:54;27.60;40.30
67529;DHT22;54366;51.980;5.856;2022-07-29T14:53:22;27.60;40.40
67529;DHT22;54366;51.980;5.856;2022-07-29T14:55:48;27.60;40.50
67529;DHT22;54366;51.980;5.856;2022-07-29T14:58:15;27.60;39.60
67529;DHT22;54366;51.980;5.856;2022-07-29T15:00:41;27.60;39.50
67529;DHT22;54366;51.980;5.856;2022-07-29T15:03:08;27.60;39.60
67529;DHT22;54366;51.980;5.856;2022-07-29T15:05:36;27.60;39.30
67529;DHT22;54366;51.980;5.856;2022-07-29T15:08:02;27.60;39.20
67529;DHT22;54366;51.980;5.856;2022-07-29T15:10:29;27.60;39.40
67529;DHT22;54366;51.980;5.856;2022-07-29T15:12:55;27.60;39.90
67529;DHT22;54366;51.980;5.856;2022-07-29T15:15:21;27.60;40.10
67529;DHT22;54366;51.980;5.856;2022-07-29T15:17:48;27.60;40.10
67529;DHT22;54366;51.980;5.856;2022-07-29T15:20:14;27.60;40.30
67529;DHT22;54366;51.980;5.856;2022-07-29T15:22:40;27.50;40.10
67529;DHT22;54366;51.980;5.856;2022-07-29T15:25:08;27.50;40.60
67529;DHT22;54366;51.980;5.856;2022-07-29T15:27:34;27.50;40.40
67529;DHT22;54366;51.980;5.856;2022-07-29T15:30:01;27.50;40.50
67529;DHT22;54366;51.980;5.856;2022-07-29T15:32:27;27.50;41.00
67529;DHT22;54366;51.980;5.856;2022-07-29T15:34:53;27.50;41.50
67529;DHT22;54366;51.980;5.856;2022-07-29T15:37:19;27.50;41.60
67529;DHT22;54366;51.980;5.856;2022-07-29T15:39:46;27.40;41.30
67529;DHT22;54366;51.980;5.856;2022-07-29T15:42:12;27.40;41.30
67529;DHT22;54366;51.980;5.856;2022-07-29T15:44:38;27.30;41.00
67529;DHT22;54366;51.980;5.856;2022-07-29T15:47:04;27.20;41.00
67529;DHT22;54366;51.980;5.856;2022-07-29T15:49:38;27.10;41.20
67529;DHT22;54366;51.980;5.856;2022-07-29T15:52:07;27.00;41.00
67529;DHT22;54366;51.980;5.856;2022-07-29T15:54:35;26.90;41.20
67529;DHT22;54366;51.980;5.856;2022-07-29T15:57:03;26.80;41.50
67529;DHT22;54366;51.980;5.856;2022-07-29T15:59:29;26.70;41.90
67529;DHT22;54366;51.980;5.856;2022-07-29T16:01:56;26.70;42.30
67529;DHT22;54366;51.980;5.856;2022-07-29T16:04:22;26.60;42.50
67529;DHT22;54366;51.980;5.856;2022-07-29T16:06:49;26.60;42.60
67529;DHT22;54366;51.980;5.856;2022-07-29T16:09:16;26.50;42.90
67529;DHT22;54366;51.980;5.856;2022-07-29T16:11:43;26.50;43.20
67529;DHT22;54366;51.980;5.856;2022-07-29T16:14:11;26.50;43.60
67529;DHT22;54366;51.980;5.856;2022-07-29T16:16:38;26.40;43.50